Time;durP1;ratioP1;P1;durP2;ratioP2;P2;SDS_P1;SDS_P2;PMS_P1;PMS_P2;Temp;Humidity;BMP_temperature;BMP_pressure;BME280_temperature;BME280_humidity;BME280_pressure;Samples;Min_cycle;Max_cycle;Signal;HPM_P1;HPM_P2
2023/01/13 00:01:48;;;;;;;5.40;4.70;;;6.10;99.90;;;5.98;69.32;95302.88;4978550;28;20493;-56
2023/01/13 00:04:15;;;;;;;5.10;4.70;;;6.20;99.90;;;5.97;69.46;95301.19;4975725;28;20479;-58
2023/01/13 00:06:42;;;;;;;5.60;5.03;;;6.20;99.90;;;5.99;69.00;95293.25;4979538;28;20985;-53
2023/01/13 00:09:09;;;;;;;4.37;3.97;;;6.20;99.90;;;5.99;69.41;95299.31;4975802;28;20487;-56
2023/01/13 00:11:37;;;;;;;6.10;4.70;;;6.20;99.90;;;5.99;69.07;95304.53;4969959;28;20967;-53
2023/01/13 00:14:04;;;;;;;5.30;4.80;;;6.20;99.90;;;6.00;69.07;95301.00;4981969;28;20494;-55
2023/01/13 00:16:33;;;;;;;6.03;5.37;;;6.20;99.90;;;6.00;69.32;95303.59;4977844;28;20951;-53
2023/01/13 00:19:00;;;;;;;5.93;5.37;;;6.20;99.90;;;6.00;69.39;95306.22;4976640;28;20482;-56
2023/01/13 00:21:27;;;;;;;7.30;6.50;;;6.20;99.90;;;6.01;69.84;95307.91;4978215;28;20460;-56
2023/01/13 00:23:55;;;;;;;6.07;5.00;;;6.20;99.90;;;6.00;69.37;95301.00;4975966;28;20483;-55
2023/01/13 00:26:23;;;;;;;5.87;5.27;;;6.20;99.90;;;6.01;69.42;95300.06;4977839;28;20463;-56
2023/01/13 00:28:50;;;;;;;18.50;10.30;;;6.20;99.90;;;6.04;69.74;95297.25;4976490;28;20475;-55
2023/01/13 00:31:20;;;;;;;11.07;7.93;;;6.20;99.90;;;6.03;68.99;95294.75;4977380;28;20451;-54
2023/01/13 00:33:49;;;;;;;12.07;8.43;;;6.20;99.90;;;6.03;69.10;95300.78;4977471;28;20478;-56
2023/01/13 00:36:18;;;;;;;9.27;7.20;;;6.20;99.90;;;6.03;69.81;95295.56;4981052;28;20537;-55
2023/01/13 00:38:46;;;;;;;17.10;8.00;;;6.20;99.90;;;6.03;69.16;95300.78;4971987;28;20501;-55
2023/01/13 00:41:15;;;;;;;11.43;7.90;;;6.20;99.90;;;6.03;69.48;95299.97;4975949;28;20465;-57
2023/01/13 00:43:41;;;;;;;10.10;8.13;;;6.20;99.90;;;6.03;68.96;95295.56;4975602;28;20483;-55
2023/01/13 00:46:10;;;;;;;10.03;6.80;;;6.20;99.90;;;6.05;69.49;95298.91;4978087;28;20465;-57
2023/01/13 00:48:38;;;;;;;8.73;7.40;;;6.30;99.90;;;6.02;68.78;95296.50;4980273;28;20508;-55
2023/01/13 00:51:08;;;;;;;11.77;7.87;;;6.20;99.90;;;6.05;68.97;95298.91;4978947;28;20481;-55
2023/01/13 00:53:37;;;;;;;9.13;7.70;;;6.20;99.90;;;6.05;68.92;95293.69;4977528;28;20567;-56
2023/01/13 00:56:06;;;;;;;9.70;7.57;;;6.20;99.90;;;6.02;68.99;95288.66;4979865;28;20557;-55
2023/01/13 00:58:34;;;;;;;11.80;8.70;;;6.20;99.90;;;6.03;69.25;95289.53;4981924;28;20473;-58
2023/01/13 01:01:01;;;;;;;9.67;6.77;;;6.20;99.90;;;6.03;69.16;95297.34;4976683;28;20522;-55
2023/01/13 01:03:29;;;;;;;12.50;7.10;;;6.20;99.90;;;6.02;68.94;95291.28;4985758;28;20502;-52
2023/01/13 01:05:56;;;;;;;7.63;6.77;;;6.20;99.90;;;6.03;68.88;95292.97;4981189;28;20553;-53
2023/01/13 01:08:25;;;;;;;8.00;6.67;;;6.20;99.90;;;6.04;69.06;95292.03;4984396;28;20467;-61
2023/01/13 01:11:02;;;;;;;8.00;7.20;;;6.20;99.90;;;6.03;68.88;95290.34;4979940;28;20458;-56
2023/01/13 01:13:29;;;;;;;8.70;6.73;;;6.20;99.90;;;6.02;69.38;95288.66;4979288;28;20976;-54
2023/01/13 01:15:56;;;;;;;7.53;6.17;;;6.20;99.90;;;6.03;69.43;95284.28;4981184;28;20498;-55
2023/01/13 01:18:23;;;;;;;6.07;5.43;;;6.20;99.90;;;6.02;69.06;95283.44;4977949;28;20471;-54
2023/01/13 01:20:51;;;;;;;6.67;5.73;;;6.20;99.90;;;6.03;69.31;95284.28;4983056;28;20459;-56
2023/01/13 01:23:18;;;;;;;8.93;6.40;;;6.20;99.90;;;6.04;69.06;95276.38;4977874;28;20541;-55
2023/01/13 01:25:47;;;;;;;5.90;5.30;;;6.20;99.90;;;6.03;69.46;95285.13;4981871;28;20462;-56
2023/01/13 01:28:17;;;;;;;7.03;5.80;;;6.20;99.90;;;6.03;69.54;95285.13;4977638;28;20475;-55
2023/01/13 01:30:44;;;;;;;6.30;5.70;;;6.20;99.90;;;6.03;69.20;95282.50;4981058;28;20458;-56
2023/01/13 01:33:11;;;;;;;5.03;4.63;;;6.20;99.90;;;6.04;69.59;95273.75;4978442;28;20567;-56
2023/01/13 01:35:40;;;;;;;5.97;5.37;;;6.20;99.90;;;6.03;69.37;95279.06;4981212;28;20569;-55
2023/01/13 01:38:07;;;;;;;6.57;5.93;;;6.20;99.90;;;6.02;69.37;95273.00;4978092;28;20475;-54
2023/01/13 01:40:35;;;;;;;7.60;5.47;;;6.20;99.90;;;6.04;69.11;95271.13;4979584;28;20459;-53
2023/01/13 01:45:54;;;;;;;4.67;4.27;;;6.20;99.90;;;6.05;69.04;95271.97;4978156;28;20427;-55
2023/01/13 01:48:21;;;;;;;5.43;4.93;;;6.20;99.90;;;6.03;68.77;95266.84;4980223;28;20487;-55
2023/01/13 01:50:48;;;;;;;5.10;4.67;;;6.20;99.90;;;6.03;69.32;95269.47;4979008;28;20459;-55
2023/01/13 01:53:17;;;;;;;5.00;4.60;;;6.20;99.90;;;6.03;68.87;95263.41;4980135;28;20484;-57
2023/01/13 01:55:44;;;;;;;4.33;4.03;;;6.20;99.90;;;6.03;69.03;95271.25;4978434;28;20499;-55
2023/01/13 01:58:15;;;;;;;6.90;5.70;;;6.20;99.90;;;6.02;69.10;95267.78;4981719;28;20968;-55
2023/01/13 02:00:42;;;;;;;5.00;4.60;;;6.20;99.90;;;6.02;69.06;95266.94;4978790;28;20456;-55
2023/01/13 02:03:09;;;;;;;5.13;4.73;;;6.20;99.90;;;6.01;68.68;95266.13;4983203;28;20470;-56
2023/01/13 02:05:37;;;;;;;5.13;4.67;;;6.20;99.90;;;6.00;68.91;95263.63;4978546;28;20455;-55
2023/01/13 02:08:05;;;;;;;4.97;4.47;;;6.20;99.90;;;5.99;69.05;95267.16;4981152;28;20471;-54
2023/01/13 02:10:32;;;;;;;5.57;5.07;;;6.20;99.90;;;5.99;69.32;95272.38;4978264;28;20459;-55
2023/01/13 02:13:00;;;;;;;5.60;4.83;;;6.20;99.90;;;5.99;69.24;95272.38;4980363;28;20490;-55
2023/01/13 02:15:34;;;;;;;5.40;4.90;;;6.20;99.90;;;5.98;69.47;95266.31;4981464;28;20600;-52
2023/01/13 02:18:22;;;;;;;5.67;5.00;;;6.20;99.90;;;5.99;69.16;95267.16;4980252;28;20475;-57
2023/01/13 02:21:05;;;;;;;5.60;5.17;;;6.10;99.90;;;5.97;69.19;95264.63;4977170;28;20538;-55
2023/01/13 02:27:26;;;;;;;5.00;4.60;;;6.20;99.90;;;5.98;69.09;95265.47;4974694;28;20874;-55
2023/01/13 02:32:58;;;;;;;5.50;4.90;;;6.20;99.90;;;6.01;69.03;95265.25;4972094;28;20455;-54
2023/01/13 02:35:27;;;;;;;7.67;5.50;;;6.20;99.90;;;6.01;69.27;95265.25;4977741;28;20479;-56
2023/01/13 02:37:54;;;;;;;6.77;6.07;;;6.20;99.90;;;6.02;69.11;95267.78;4977723;28;21067;-55
2023/01/13 02:40:25;;;;;;;6.70;5.83;;;6.20;99.90;;;6.02;69.33;95262.56;4979208;28;20467;-56
2023/01/13 02:45:46;;;;;;;8.47;6.93;;;6.20;99.90;;;6.01;69.29;95263.50;4971815;28;20814;-54
2023/01/13 02:48:14;;;;;;;6.90;6.10;;;6.20;99.90;;;6.01;69.07;95266.13;4979492;28;20621;-56
2023/01/13 02:50:44;;;;;;;7.40;6.07;;;6.20;99.90;;;6.03;69.56;95261.63;4977240;28;20455;-56
2023/01/13 02:53:14;;;;;;;7.30;6.50;;;6.20;99.90;;;6.04;68.96;95260.69;4979396;28;20466;-56
2023/01/13 02:55:45;;;;;;;7.67;6.90;;;6.20;99.90;;;6.03;69.25;95259.00;4976117;28;20495;-53
2023/01/13 02:58:14;;;;;;;6.40;5.80;;;6.20;99.90;;;6.02;69.34;95257.31;4980215;28;20480;-54
2023/01/13 03:00:41;;;;;;;6.60;5.70;;;6.20;99.90;;;6.04;68.97;95260.69;4971941;28;20473;-54
2023/01/13 03:03:10;;;;;;;5.90;5.10;;;6.20;99.90;;;6.03;68.93;95266.03;4981476;28;20679;-56
2023/01/13 03:05:37;;;;;;;5.83;5.00;;;6.20;99.90;;;6.03;69.29;95263.41;4975896;28;20466;-55
2023/01/13 03:08:22;;;;;;;6.17;5.53;;;6.20;99.90;;;6.00;69.44;95259.22;4981930;28;20478;-55
2023/01/13 03:11:06;;;;;;;6.27;5.67;;;6.20;99.90;;;6.01;69.41;95262.66;4979325;28;20463;-58
2023/01/13 03:14:00;;;;;;;5.67;5.10;;;6.20;99.90;;;5.99;69.00;95260.16;4976006;28;20471;-58
2023/01/13 03:16:35;;;;;;;6.67;5.10;;;6.20;99.90;;;6.02;69.50;95254.72;4961869;28;20920;-56
2023/01/13 03:19:14;;;;;;;6.73;4.90;;;6.20;99.90;;;6.02;69.03;95257.31;4978768;28;20847;-55
2023/01/13 03:21:47;;;;;;;7.13;5.17;;;6.20;99.90;;;6.03;69.03;95261.63;4975301;28;20513;-56
2023/01/13 03:24:17;;;;;;;6.97;5.53;;;6.20;99.90;;;6.02;69.29;95257.31;4978400;28;20476;-56
2023/01/13 03:26:48;;;;;;;7.97;6.00;;;6.20;99.90;;;6.02;68.86;95256.50;4976641;28;20515;-55
2023/01/13 03:29:19;;;;;;;6.73;6.03;;;6.20;99.90;;;6.01;68.51;95260.91;4980162;28;20975;-55
2023/01/13 03:31:51;;;;;;;5.80;5.27;;;6.20;99.90;;;6.00;69.01;95259.22;4976574;28;20976;-56
2023/01/13 03:34:21;;;;;;;5.93;5.17;;;6.20;99.90;;;6.01;69.00;95265.25;4980453;28;20492;-52
2023/01/13 03:36:51;;;;;;;4.80;4.33;;;6.20;99.90;;;6.00;69.21;95263.63;4972882;28;20573;-56
2023/01/13 03:39:21;;;;;;;4.93;4.43;;;6.20;99.90;;;5.99;69.50;95265.38;4977794;28;20999;-55
2023/01/13 03:41:53;;;;;;;4.77;3.93;;;6.20;99.90;;;5.99;69.08;95261.94;4972066;28;20898;-55
2023/01/13 03:44:22;;;;;;;4.70;4.30;;;6.20;99.90;;;5.98;69.33;95271.53;4976932;28;20578;-53
2023/01/13 03:46:58;;;;;;;4.40;4.10;;;6.20;99.90;;;5.98;69.00;95271.53;4976109;28;20447;-54
2023/01/13 03:49:29;;;;;;;4.97;4.47;;;6.20;99.90;;;5.98;69.22;95268.94;4976877;28;21089;-55
2023/01/13 03:51:58;;;;;;;6.97;4.73;;;6.20;99.90;;;5.95;69.18;95261.28;4975779;28;20451;-53
2023/01/13 03:54:28;;;;;;;4.13;3.73;;;6.20;99.90;;;5.96;68.96;95272.53;4976716;28;20560;-55
2023/01/13 03:56:57;;;;;;;4.83;4.50;;;6.20;99.90;;;5.96;69.33;95273.38;4978841;28;20523;-56
2023/01/13 03:59:26;;;;;;;4.67;4.30;;;6.20;99.90;;;5.95;68.86;95271.72;4979554;28;20528;-57
2023/01/13 04:01:59;;;;;;;4.03;3.73;;;6.10;99.90;;;5.96;69.17;95267.31;4971764;28;20486;-53
2023/01/13 04:04:30;;;;;;;4.73;4.33;;;6.10;99.90;;;5.96;68.82;95269.94;4979965;28;20820;-55
2023/01/13 04:07:02;;;;;;;4.33;3.93;;;6.20;99.90;;;5.96;69.16;95269.94;4979856;28;20439;-54
2023/01/13 04:09:34;;;;;;;4.83;4.30;;;6.10;99.90;;;5.95;69.57;95269.09;4975530;28;20538;-56
2023/01/13 04:12:04;;;;;;;4.20;3.90;;;6.10;99.90;;;5.95;69.46;95276.09;4977220;28;20533;-55
2023/01/13 04:14:32;;;;;;;4.30;4.00;;;6.10;99.90;;;5.94;69.06;95277.88;4980210;28;20534;-57
2023/01/13 04:16:59;;;;;;;6.27;5.67;;;6.10;99.90;;;5.95;68.96;95276.94;4975456;28;20498;-55
2023/01/13 04:19:28;;;;;;;4.87;4.43;;;6.10;99.90;;;5.95;68.82;95282.16;4980111;28;20547;-59
2023/01/13 04:21:55;;;;;;;4.67;4.33;;;6.10;99.90;;;5.96;68.97;95282.97;4985555;28;20818;-55
2023/01/13 04:24:22;;;;;;;5.10;4.70;;;6.20;99.90;;;5.97;68.98;95279.47;4985280;28;20467;-56
2023/01/13 04:26:49;;;;;;;4.03;3.73;;;6.10;99.90;;;5.98;68.83;95281.13;4983552;28;20537;-55
2023/01/13 04:29:17;;;;;;;5.07;4.53;;;6.20;99.90;;;5.97;69.07;95282.91;4976215;28;20477;-55
2023/01/13 04:31:44;;;;;;;4.70;4.30;;;6.10;99.90;;;5.96;69.30;95283.81;4987254;28;20462;-56
2023/01/13 04:34:11;;;;;;;5.30;4.90;;;6.10;99.90;;;5.98;69.74;95284.59;4985676;28;20594;-55
2023/01/13 04:36:40;;;;;;;4.30;4.00;;;6.20;99.90;;;6.00;69.08;95289.72;4988307;28;20517;-54
2023/01/13 04:39:07;;;;;;;6.03;5.03;;;6.20;99.90;;;6.00;69.01;95287.94;4986216;28;20477;-55
2023/01/13 04:44:16;;;;;;;5.67;5.17;;;6.20;99.90;;;6.01;69.11;95284.41;4985130;28;20478;-54
2023/01/13 04:46:43;;;;;;;7.90;5.63;;;6.20;99.90;;;6.01;69.38;95289.63;4981558;28;20483;-54
2023/01/13 04:49:11;;;;;;;6.10;5.47;;;6.20;99.90;;;6.03;68.99;95290.34;4981822;28;20661;-55
2023/01/13 04:51:40;;;;;;;7.80;5.60;;;6.20;99.90;;;6.03;69.03;95287.72;4983558;28;20463;-54
2023/01/13 04:54:07;;;;;;;15.03;6.63;;;6.20;99.90;;;6.04;68.96;95292.03;4981022;28;21030;-56
2023/01/13 04:56:34;;;;;;;12.90;7.10;;;6.20;99.90;;;6.03;69.41;95289.53;4984117;28;20494;-55
2023/01/13 04:59:01;;;;;;;13.40;8.00;;;6.20;99.90;;;6.02;69.76;95293.06;4980519;28;20472;-55
2023/01/13 05:01:29;;;;;;;10.20;6.87;;;6.20;99.90;;;6.01;69.53;95289.63;4981685;28;20585;-55
2023/01/13 05:03:56;;;;;;;7.73;6.27;;;6.20;99.90;;;6.01;69.10;95289.63;4984191;28;20507;-55
2023/01/13 05:06:23;;;;;;;8.13;6.37;;;6.20;99.90;;;6.01;69.18;95304.44;4986046;28;21004;-56
2023/01/13 05:08:52;;;;;;;7.93;5.67;;;6.20;99.90;;;6.02;69.68;95303.50;4984707;28;20501;-57
2023/01/13 05:17:00;;;;;;;7.13;6.37;;;6.20;99.90;;;5.99;69.31;95299.31;4982120;28;20506;-56
2023/01/13 05:19:28;;;;;;;6.47;5.83;;;6.20;99.90;;;5.99;69.21;95299.31;4983139;28;20817;-55
2023/01/13 05:27:26;;;;;;;11.57;8.20;;;6.20;99.90;;;5.96;69.78;95309.09;4982730;28;20812;-56
2023/01/13 05:29:54;;;;;;;9.27;7.37;;;6.20;99.90;;;5.94;69.29;95306.59;4983709;28;20528;-55
2023/01/13 05:32:21;;;;;;;15.20;7.60;;;6.10;99.90;;;5.93;69.33;95305.75;4978510;28;20573;-55
2023/01/13 05:34:49;;;;;;;8.87;7.00;;;6.10;99.90;;;5.93;69.39;95310.13;4980637;28;20466;-55
2023/01/13 05:37:16;;;;;;;8.27;6.80;;;6.10;99.90;;;5.91;69.50;95305.00;4979027;28;20495;-55
2023/01/13 05:45:14;;;;;;;9.40;7.30;;;6.10;99.90;;;5.90;69.68;95305.09;4975288;28;20462;-56
2023/01/13 05:47:41;;;;;;;10.13;7.83;;;6.10;99.90;;;5.90;69.28;95305.97;4977321;28;20529;-57
2023/01/13 05:50:10;;;;;;;9.80;7.70;;;6.10;99.90;;;5.89;69.65;95308.66;4977911;28;20459;-55
2023/01/13 05:52:37;;;;;;;11.93;8.60;;;6.10;99.90;;;5.89;69.07;95309.50;4977290;28;20475;-56
2023/01/13 05:55:07;;;;;;;14.17;8.97;;;6.10;99.90;;;5.88;69.77;95307.81;4979361;28;20991;-56
2023/01/13 05:57:35;;;;;;;11.30;8.90;;;6.10;99.90;;;5.88;69.97;95313.03;4977585;28;20506;-56
2023/01/13 06:00:03;;;;;;;13.23;8.93;;;6.10;99.90;;;5.87;69.28;95315.75;4981646;28;20485;-56
2023/01/13 06:02:30;;;;;;;12.10;9.03;;;6.00;99.90;;;5.86;69.75;95314.91;4981831;28;20471;-56
2023/01/13 06:04:57;;;;;;;9.53;8.07;;;6.10;99.90;;;5.87;69.70;95316.59;4980927;28;20545;-55
2023/01/13 06:07:25;;;;;;;11.90;8.10;;;6.00;99.90;;;5.87;69.46;95324.44;4983956;28;20480;-57
2023/01/13 06:09:52;;;;;;;13.07;7.87;;;6.00;99.90;;;5.88;70.14;95322.66;4979277;28;20510;-57
2023/01/13 06:12:21;;;;;;;11.70;7.83;;;6.10;99.90;;;5.90;69.49;95323.38;4977252;28;20460;-55
2023/01/13 06:14:48;;;;;;;10.50;7.77;;;6.10;99.90;;;5.90;69.73;95326.84;4981523;28;20447;-56
2023/01/13 06:17:16;;;;;;;9.27;8.07;;;6.10;99.90;;;5.91;69.86;95331.09;4977377;28;20517;-56
2023/01/13 06:19:43;;;;;;;9.13;7.27;;;6.10;99.90;;;5.93;69.75;95336.22;4978636;28;20482;-56
2023/01/13 06:22:15;;;;;;;10.23;7.50;;;6.10;99.90;;;5.96;69.30;95337.81;4979862;28;20454;-57
2023/01/13 06:24:44;;;;;;;11.40;7.40;;;6.10;99.90;;;5.94;69.48;95337.91;4979838;28;20533;-55
2023/01/13 06:27:11;;;;;;;11.03;8.10;;;6.10;99.90;;;5.94;70.17;95337.91;4979631;28;20471;-56
2023/01/13 06:29:40;;;;;;;14.67;8.20;;;6.10;99.90;;;5.94;69.95;95337.91;4977897;28;20459;-54
2023/01/13 06:32:11;;;;;;;10.90;8.47;;;6.10;99.90;;;5.94;69.92;95340.53;4978595;28;20447;-56
2023/01/13 06:34:39;;;;;;;13.63;7.57;;;6.10;99.90;;;5.96;69.37;95343.84;4974914;28;20450;-55
2023/01/13 06:37:06;;;;;;;15.60;7.60;;;6.20;99.90;;;5.98;69.26;95344.66;4975808;28;20577;-56
2023/01/13 06:39:34;;;;;;;9.27;7.80;;;6.10;99.90;;;5.99;69.49;95335.88;4976483;28;21018;-56
2023/01/13 06:44:48;;;;;;;8.20;7.40;;;6.20;99.90;;;6.02;69.85;95335.66;4977141;28;20492;-58
2023/01/13 06:47:15;;;;;;;13.20;8.63;;;6.20;99.90;;;6.06;69.60;95336.31;4978626;28;20451;-56
2023/01/13 06:49:43;;;;;;;13.30;8.70;;;6.20;99.90;;;6.05;69.73;95335.47;4976821;28;20447;-55
2023/01/13 06:52:10;;;;;;;11.40;7.20;;;6.20;99.90;;;6.07;69.59;95332.75;4978451;28;20451;-55
2023/01/13 06:54:37;;;;;;;11.60;7.83;;;6.30;99.90;;;6.08;70.12;95331.81;4976208;28;20462;-55
2023/01/13 06:57:05;;;;;;;11.67;7.43;;;6.30;99.90;;;6.09;69.68;95331.72;4977869;28;20495;-56
2023/01/13 06:59:33;;;;;;;11.17;7.87;;;6.30;99.90;;;6.12;69.35;95337.66;4982357;28;20821;-56
2023/01/13 07:02:02;;;;;;;13.97;8.17;;;6.30;99.90;;;6.15;69.40;95338.31;4979562;28;20462;-55
2023/01/13 07:04:29;;;;;;;10.93;7.77;;;6.30;99.90;;;6.17;70.31;95336.44;4979053;28;20455;-54
2023/01/13 07:06:56;;;;;;;13.97;7.70;;;6.40;99.90;;;6.23;70.33;95337.81;4980599;28;20454;-56
2023/01/13 07:09:23;;;;;;;17.23;7.60;;;6.40;99.90;;;6.28;70.46;95330.50;4973709;28;21041;-53
2023/01/13 07:11:51;;;;;;;11.00;8.70;;;6.40;99.90;;;6.33;70.20;95333.63;4975873;28;20828;-54
2023/01/13 07:17:05;;;;;;;8.57;7.10;;;6.50;99.90;;;6.40;70.21;95336.69;4974571;28;20559;-56
2023/01/13 07:19:32;;;;;;;16.33;7.50;;;6.50;99.90;;;6.38;69.67;95331.56;4977834;28;20972;-55
2023/01/13 07:21:59;;;;;;;10.10;7.20;;;6.50;99.90;;;6.35;69.09;95326.56;4974215;28;20454;-58
2023/01/13 07:24:27;;;;;;;13.93;8.43;;;6.50;99.90;;;6.36;69.66;95330.00;4977505;28;20457;-56
2023/01/13 07:26:54;;;;;;;11.87;7.97;;;6.50;99.90;;;6.36;69.19;95338.66;4973653;28;20454;-55
2023/01/13 07:29:22;;;;;;;11.10;7.87;;;6.50;99.90;;;6.36;68.98;95330.81;4977479;28;20486;-55
2023/01/13 07:31:49;;;;;;;11.47;7.90;;;6.50;99.90;;;6.41;69.57;95333.13;4972685;28;20462;-56
2023/01/13 07:34:18;;;;;;;10.40;8.43;;;6.60;99.90;;;6.44;69.55;95325.94;4975420;28;20483;-56
2023/01/13 07:36:45;;;;;;;9.37;7.40;;;6.60;99.90;;;6.46;69.04;95321.44;4972055;28;20497;-56
2023/01/13 07:39:12;;;;;;;9.63;7.07;;;6.60;99.90;;;6.49;68.67;95322.16;4974453;28;20479;-56
2023/01/13 07:44:24;;;;;;;13.60;7.30;;;6.70;99.90;;;6.50;68.91;95331.69;4979468;28;20485;-57
2023/01/13 07:46:51;;;;;;;9.40;7.03;;;6.70;99.90;;;6.50;68.67;95334.28;4975791;28;20464;-54
2023/01/13 07:49:20;;;;;;;12.67;7.50;;;6.70;99.90;;;6.51;68.75;95335.97;4976492;28;20476;-56
2023/01/13 07:51:48;;;;;;;12.67;9.60;;;6.70;99.90;;;6.56;68.77;95339.09;4975405;28;20465;-56
2023/01/13 07:54:15;;;;;;;12.80;7.40;;;6.70;99.90;;;6.58;68.50;95335.47;4975998;28;20958;-57
2023/01/13 07:56:42;;;;;;;11.50;7.10;;;6.70;99.90;;;6.64;68.66;95339.41;4973927;28;20501;-55
2023/01/13 07:59:10;;;;;;;7.23;6.20;;;6.80;99.90;;;6.68;68.73;95338.28;4976894;28;20891;-55
2023/01/13 08:01:37;;;;;;;9.83;7.53;;;6.80;99.90;;;6.72;68.39;95344.94;4974470;28;20451;-55
2023/01/13 08:04:05;;;;;;;9.60;6.40;;;6.90;99.90;;;6.76;68.54;95346.41;4980261;28;20479;-56
2023/01/13 08:06:35;;;;;;;9.10;5.90;;;6.90;99.90;;;6.80;68.55;95347.03;4982479;28;20455;-56
2023/01/13 08:09:02;;;;;;;8.80;6.47;;;6.90;99.90;;;6.85;68.57;95344.09;4976706;28;20490;-55
2023/01/13 08:11:30;;;;;;;6.70;5.93;;;7.00;99.90;;;6.89;68.10;95337.75;4977643;28;20573;-55
2023/01/13 08:13:57;;;;;;;7.77;5.83;;;7.00;99.90;;;6.95;68.19;95339.94;4977330;28;20471;-56
2023/01/13 08:16:25;;;;;;;6.83;6.13;;;7.10;99.90;;;6.99;67.50;95341.41;4974053;28;20578;-56
2023/01/13 08:18:52;;;;;;;6.83;5.90;;;7.10;99.90;;;7.03;67.60;95340.22;4970315;28;20482;-54
2023/01/13 08:21:19;;;;;;;6.87;5.83;;;7.20;99.90;;;7.11;67.53;95342.31;4977863;28;20517;-57
2023/01/13 08:23:48;;;;;;;7.37;5.60;;;7.20;99.90;;;7.10;67.23;95341.47;4970331;28;20462;-55
2023/01/13 08:26:17;;;;;;;9.67;6.77;;;7.20;99.90;;;7.09;67.20;95347.66;4977903;28;20975;-57
2023/01/13 08:28:44;;;;;;;7.50;6.23;;;7.30;99.90;;;7.11;67.93;95339.69;4974468;28;20547;-55
2023/01/13 08:31:14;;;;;;;9.63;6.70;;;7.20;99.90;;;7.17;68.08;95345.34;4978221;28;20451;-56
2023/01/13 08:33:41;;;;;;;7.80;6.50;;;7.30;99.90;;;7.26;67.68;95348.25;4973492;28;20483;-55
2023/01/13 08:36:11;;;;;;;6.60;5.87;;;7.30;99.90;;;7.35;66.77;95345.00;4978936;28;20529;-55
2023/01/13 08:38:39;;;;;;;10.63;5.67;;;7.50;99.90;;;7.45;66.59;95347.78;4975805;28;21397;-56
2023/01/13 08:41:11;;;;;;;9.80;6.37;;;7.50;99.90;;;7.50;67.03;95345.69;4972786;28;20987;-55
2023/01/13 08:43:38;;;;;;;6.03;5.43;;;7.60;99.90;;;7.59;67.13;95346.81;4979249;28;20483;-56
2023/01/13 08:46:06;;;;;;;7.13;5.90;;;7.70;99.90;;;7.64;66.63;95347.34;4974210;28;20471;-57
2023/01/13 08:48:34;;;;;;;6.67;5.93;;;7.70;99.90;;;7.69;66.75;95345.22;4975901;28;20483;-57
2023/01/13 08:51:04;;;;;;;5.77;5.27;;;7.80;99.90;;;7.76;66.18;95343.84;4976263;28;20447;-54
2023/01/13 08:53:31;;;;;;;5.10;4.60;;;7.80;99.90;;;7.82;66.21;95346.00;4975005;28;20470;-54
2023/01/13 08:55:59;;;;;;;8.90;4.13;;;7.90;99.90;;;7.88;65.61;95337.69;4975742;28;20470;-54
2023/01/13 08:58:27;;;;;;;6.23;5.20;;;8.00;99.90;;;7.93;65.08;95334.72;4976250;28;20526;-54
2023/01/13 09:00:55;;;;;;;8.23;4.00;;;8.00;99.90;;;7.98;65.37;95342.25;4976871;28;20451;-56
2023/01/13 09:03:22;;;;;;;3.97;3.67;;;8.10;99.90;;;8.03;64.59;95342.75;4978382;28;20514;-55
2023/01/13 09:05:49;;;;;;;4.73;3.97;;;8.10;99.90;;;8.06;64.28;95342.53;4973304;28;20959;-55
2023/01/13 09:08:17;;;;;;;4.90;4.40;;;8.20;99.90;;;8.07;64.83;95342.41;4981930;28;20513;-58
2023/01/13 09:10:44;;;;;;;4.40;3.90;;;8.20;99.90;;;8.11;65.07;95335.16;4977136;28;20593;-56
2023/01/13 09:13:12;;;;;;;4.40;3.80;;;8.20;99.90;;;8.14;63.62;95337.56;4982990;28;20461;-55
2023/01/13 09:15:42;;;;;;;3.90;3.40;;;8.20;99.90;;;8.12;63.80;95336.00;4973752;28;20983;-56
2023/01/13 09:18:09;;;;;;;4.23;3.80;;;8.20;99.90;;;8.08;64.57;95340.63;4982453;28;20506;-55
2023/01/13 09:20:36;;;;;;;4.77;3.30;;;8.20;99.90;;;8.10;64.14;95337.91;4977088;28;20483;-55
2023/01/13 09:23:04;;;;;;;3.97;3.53;;;8.20;99.90;;;8.10;63.69;95343.13;4977948;28;20578;-59
2023/01/13 09:25:31;;;;;;;4.50;4.10;;;8.20;99.90;;;8.11;63.33;95335.16;4977232;28;20458;-56
2023/01/13 09:27:58;;;;;;;9.50;3.80;;;8.20;99.90;;;8.08;62.16;95330.97;4977970;28;20482;-56
2023/01/13 09:30:26;;;;;;;11.13;5.00;;;8.20;99.50;;;8.06;63.44;95330.25;4979064;28;20890;-57
2023/01/13 09:34:58;;;;;;;6.57;3.63;;;8.20;99.80;;;8.05;62.14;95328.59;4979462;28;20474;-55
2023/01/13 09:35:41;;;;;;;3.23;3.03;;;8.10;99.20;;;8.00;62.66;95327.28;4974179;28;20443;-57
2023/01/13 09:38:09;;;;;;;3.43;3.13;;;8.10;99.10;;;7.95;63.35;95334.59;4979531;28;20504;-56
2023/01/13 09:40:36;;;;;;;4.27;3.57;;;8.10;99.50;;;7.92;63.46;95330.44;4975154;28;20460;-56
2023/01/13 09:45:59;;;;;;;4.00;3.67;;;8.00;99.70;;;7.86;62.76;95334.34;4978104;28;20485;-57
2023/01/13 09:48:30;;;;;;;3.87;3.57;;;8.00;99.40;;;7.85;64.01;95323.97;4980283;28;20486;-54
2023/01/13 09:51:06;;;;;;;6.63;3.90;;;7.90;99.90;;;7.84;63.30;95332.81;4976576;28;20989;-56
2023/01/13 09:53:34;;;;;;;3.57;3.27;;;8.00;99.90;;;7.84;63.76;95320.53;4977705;28;20479;-55
2023/01/13 09:56:02;;;;;;;5.10;3.77;;;7.90;99.90;;;7.89;64.49;95315.78;4979966;28;20450;-55
2023/01/13 09:58:29;;;;;;;3.40;3.20;;;8.00;99.90;;;7.97;63.70;95315.22;4977341;28;20578;-54
2023/01/13 10:01:19;;;;;;;9.43;3.93;;;8.00;99.90;;;8.08;64.46;95309.19;4978490;28;20458;-57
2023/01/13 10:03:48;;;;;;;4.60;3.70;;;8.10;99.90;;;8.18;64.15;95310.19;4981495;28;20467;-57
2023/01/13 10:06:17;;;;;;;3.80;3.17;;;8.30;99.90;;;8.29;64.00;95303.28;4980081;28;20876;-53
2023/01/13 10:08:45;;;;;;;3.77;3.40;;;8.30;99.90;;;8.36;63.46;95305.34;4981439;28;20486;-56
2023/01/13 10:14:02;;;;;;;3.50;3.20;;;8.50;99.30;;;8.41;62.91;95299.75;4974450;28;20506;-56
2023/01/13 10:16:40;;;;;;;3.77;2.77;;;8.50;99.70;;;8.42;62.40;95298.81;4980732;28;20480;-57
2023/01/13 10:19:16;;;;;;;4.10;3.70;;;8.50;99.00;;;8.36;62.34;95297.47;4977281;28;20482;-56
2023/01/13 10:22:15;;;;;;;5.63;4.27;;;8.50;99.10;;;8.39;62.71;95306.91;4979488;28;20557;-57
2023/01/13 10:25:10;;;;;;;2.83;2.63;;;8.50;99.30;;;8.38;63.04;95302.59;4980293;28;20454;-55
2023/01/13 10:27:38;;;;;;;3.57;3.30;;;8.50;99.60;;;8.38;62.75;95300.84;4926649;28;20535;-58
2023/01/13 10:30:20;;;;;;;3.50;3.20;;;8.50;99.60;;;8.37;61.90;95293.91;4977268;28;20608;-55
2023/01/13 10:32:50;;;;;;;3.20;3.00;;;8.40;98.70;;;8.31;62.50;95291.75;4978220;28;20541;-56
2023/01/13 10:35:40;;;;;;;5.40;3.77;;;8.50;99.20;;;8.25;61.91;95279.94;4977030;28;20515;-54
2023/01/13 10:38:15;;;;;;;3.67;3.37;;;8.40;98.80;;;8.21;63.14;95283.75;4971532;28;20553;-54
2023/01/13 10:40:48;;;;;;;4.97;4.20;;;8.30;99.50;;;8.24;63.37;95283.53;4978698;28;20461;-56
2023/01/13 10:43:15;;;;;;;3.30;3.00;;;8.30;99.60;;;8.28;63.54;95281.50;4979166;28;20482;-55
2023/01/13 10:46:01;;;;;;;3.97;3.23;;;8.40;99.60;;;8.34;63.05;95282.84;4975155;28;20455;-56
2023/01/13 10:48:34;;;;;;;3.43;3.13;;;8.40;99.60;;;8.40;63.13;95277.13;4975661;28;20470;-57
2023/01/13 10:51:23;;;;;;;4.00;3.60;;;8.50;99.70;;;8.46;62.81;95281.94;4977798;28;20452;-55
2023/01/13 10:53:53;;;;;;;3.30;3.00;;;8.50;99.70;;;8.46;62.02;95275.84;4977472;28;20475;-56
2023/01/13 10:56:22;;;;;;;15.63;3.10;;;8.50;98.70;;;8.46;63.03;95276.69;4976913;28;20535;-56
2023/01/13 10:58:49;;;;;;;2.50;2.40;;;8.50;99.50;;;8.49;62.82;95270.38;4974277;28;21049;-57
2023/01/13 11:01:25;;;;;;;4.43;4.03;;;8.60;99.40;;;8.52;62.90;95273.59;4978194;28;20451;-55
2023/01/13 11:03:53;;;;;;;4.20;3.30;;;8.60;99.60;;;8.55;62.88;95270.75;4978783;28;20585;-56
2023/01/13 11:06:24;;;;;;;5.00;4.60;;;8.60;99.60;;;8.56;62.12;95264.53;4976159;28;20982;-56
2023/01/13 11:08:54;;;;;;;4.20;3.80;;;8.70;99.10;;;8.54;62.77;95271.69;4978926;28;21003;-57
2023/01/13 11:11:41;;;;;;;2.83;2.57;;;8.70;99.20;;;8.53;62.67;95264.78;4977157;28;20462;-55
2023/01/13 11:14:35;;;;;;;4.00;3.60;;;8.60;99.20;;;8.49;62.80;95265.97;4981537;28;20976;-56
2023/01/13 11:17:22;;;;;;;5.90;4.57;;;8.60;99.40;;;8.50;63.04;95267.63;4979088;28;20459;-56
2023/01/13 11:19:54;;;;;;;3.90;3.50;;;8.60;99.60;;;8.51;63.21;95265.84;4977784;28;20451;-56
2023/01/13 11:22:26;;;;;;;11.60;3.70;;;8.60;99.60;;;8.49;62.80;95260.72;4976767;28;20487;-56
2023/01/13 11:24:55;;;;;;;4.40;3.20;;;8.60;99.30;;;8.48;62.95;95263.47;4971883;28;20478;-57
2023/01/13 11:27:25;;;;;;;5.60;3.87;;;8.60;99.70;;;8.48;63.38;95264.28;4974096;28;20536;-56